Time;durP1;ratioP1;P1;durP2;ratioP2;P2;SDS_P1;SDS_P2;PMS_P1;PMS_P2;Temp;Humidity;BMP_temperature;BMP_pressure;BME280_temperature;BME280_humidity;BME280_pressure;Samples;Min_cycle;Max_cycle;Signal;HPM_P1;HPM_P2
2023/05/26 00:01:39;;;;;;;;;;;;;;;9.30;84.21;102925.84;5016206;28;19925;-56
2023/05/26 00:04:04;;;;;;;;;;;;;;;9.27;82.76;102927.31;5015160;28;19971;-57
2023/05/26 00:06:31;;;;;;;;;;;;;;;9.21;82.85;102927.78;5018137;28;20339;-57
2023/05/26 00:08:56;;;;;;;;;;;;;;;9.20;83.06;102933.72;5021644;28;20455;-57
2023/05/26 00:11:22;;;;;;;;;;;;;;;9.18;84.13;102926.72;5013932;28;20027;-56
2023/05/26 00:13:47;;;;;;;;;;;;;;;9.13;82.46;102927.28;5018379;28;19926;-56
2023/05/26 00:16:12;;;;;;;;;;;;;;;9.09;83.55;102932.13;5015723;28;19925;-56
2023/05/26 00:18:37;;;;;;;;;;;;;;;9.04;81.11;102936.97;5017695;28;20302;-56
2023/05/26 00:21:03;;;;;;;;;;;;;;;9.00;83.96;102936.66;5020871;28;19921;-55
2023/05/26 00:23:28;;;;;;;;;;;;;;;8.99;85.30;102945.13;5020852;28;19929;-56
2023/05/26 00:25:53;;;;;;;;;;;;;;;8.96;85.00;102939.78;5017046;28;19972;-56
2023/05/26 00:28:19;;;;;;;;;;;;;;;8.94;86.29;102938.78;5019171;28;20276;-56
2023/05/26 00:30:44;;;;;;;;;;;;;;;8.88;85.81;102941.84;5019558;28;19921;-56
2023/05/26 00:33:10;;;;;;;;;;;;;;;8.85;84.66;102941.63;5019546;28;19929;-56
2023/05/26 00:35:35;;;;;;;;;;;;;;;8.81;86.02;102940.53;5014470;28;19921;-56
2023/05/26 00:38:00;;;;;;;;;;;;;;;8.76;85.77;102943.56;5018173;28;19933;-56
2023/05/26 00:40:25;;;;;;;;;;;;;;;8.75;85.20;102944.34;5018298;28;19940;-56
2023/05/26 00:42:51;;;;;;;;;;;;;;;8.72;86.16;102941.56;5019690;28;20063;-56
2023/05/26 00:45:16;;;;;;;;;;;;;;;8.69;87.97;102943.94;5017840;28;20063;-57
2023/05/26 00:47:41;;;;;;;;;;;;;;;8.66;86.53;102949.72;5013946;28;19987;-56
2023/05/26 00:50:07;;;;;;;;;;;;;;;8.63;86.91;102940.94;5018013;28;19929;-56
2023/05/26 00:52:33;;;;;;;;;;;;;;;8.59;85.71;102947.53;5021969;28;20283;-55
2023/05/26 00:54:59;;;;;;;;;;;;;;;8.56;87.71;102943.09;5019414;28;19940;-55
2023/05/26 00:57:27;;;;;;;;;;;;;;;8.52;88.12;102951.34;5015612;28;19932;-56
2023/05/26 00:59:54;;;;;;;;;;;;;;;8.50;87.30;102944.34;5016750;28;19936;-56
2023/05/26 01:02:20;;;;;;;;;;;;;;;8.47;86.87;102942.44;5013457;28;19922;-56
2023/05/26 01:04:48;;;;;;;;;;;;;;;8.45;87.08;102949.16;5017156;28;19936;-56
2023/05/26 01:07:13;;;;;;;;;;;;;;;8.42;87.36;102945.47;5019909;28;20346;-56
2023/05/26 01:09:40;;;;;;;;;;;;;;;8.40;86.87;102945.38;5016570;28;19949;-56
2023/05/26 01:12:07;;;;;;;;;;;;;;;8.37;85.90;102944.25;5017994;28;19963;-56
2023/05/26 01:14:48;;;;;;;;;;;;;;;8.34;88.28;102944.91;5013839;28;19929;-57
2023/05/26 01:17:26;;;;;;;;;;;;;;;8.32;89.85;102949.03;5016756;28;20063;-57
2023/05/26 01:20:10;;;;;;;;;;;;;;;8.28;88.32;102949.59;5018103;28;19967;-57
2023/05/26 01:22:50;;;;;;;;;;;;;;;8.20;89.30;102949.06;5017501;28;19939;-57
2023/05/26 01:25:25;;;;;;;;;;;;;;;8.20;88.95;102956.75;5016373;28;19932;-55
2023/05/26 01:28:08;;;;;;;;;;;;;;;8.17;89.72;102958.19;5014430;28;19928;-56
2023/05/26 01:30:35;;;;;;;;;;;;;;;8.13;89.94;102958.75;5012493;28;20450;-56
2023/05/26 01:33:00;;;;;;;;;;;;;;;8.11;89.82;102957.75;5018050;28;20295;-57
2023/05/26 01:35:25;;;;;;;;;;;;;;;8.06;90.49;102963.44;5018608;28;20029;-56
2023/05/26 01:37:51;;;;;;;;;;;;;;;8.03;89.26;102960.66;5013140;28;20253;-56
2023/05/26 01:40:17;;;;;;;;;;;;;;;8.00;91.55;102957.88;5034306;28;20404;-57
2023/05/26 01:42:45;;;;;;;;;;;;;;;7.98;91.37;102956.00;5014969;28;19972;-57
2023/05/26 01:45:12;;;;;;;;;;;;;;;7.93;89.37;102955.66;5012659;28;20068;-56
2023/05/26 01:47:39;;;;;;;;;;;;;;;7.92;90.94;102964.13;5016234;28;19921;-56
2023/05/26 01:50:07;;;;;;;;;;;;;;;7.88;91.27;102964.66;5015368;28;19917;-55
2023/05/26 01:52:33;;;;;;;;;;;;;;;7.84;91.07;102960.13;5015104;28;19995;-56
2023/05/26 01:55:01;;;;;;;;;;;;;;;7.83;90.25;102965.16;5018431;28;19925;-57
2023/05/26 01:57:28;;;;;;;;;;;;;;;7.79;91.95;102964.03;5015841;28;19921;-57
2023/05/26 01:59:55;;;;;;;;;;;;;;;7.75;92.34;102965.44;5017834;28;19922;-56
2023/05/26 02:02:20;;;;;;;;;;;;;;;7.71;91.27;102960.03;5017269;28;19952;-57
2023/05/26 02:04:45;;;;;;;;;;;;;;;7.68;92.68;102957.22;5018545;28;20391;-57
2023/05/26 02:07:11;;;;;;;;;;;;;;;7.64;91.57;102968.91;5022301;28;19925;-56
2023/05/26 02:09:36;;;;;;;;;;;;;;;7.61;91.87;102967.78;5021523;28;19921;-57
2023/05/26 02:12:02;;;;;;;;;;;;;;;7.59;92.35;102964.25;5021015;28;19917;-56
2023/05/26 02:14:27;;;;;;;;;;;;;;;7.55;91.67;102965.66;5020019;28;19924;-55
2023/05/26 02:16:53;;;;;;;;;;;;;;;7.50;91.44;102970.44;5020164;28;19929;-56
2023/05/26 02:19:18;;;;;;;;;;;;;;;7.45;91.79;102969.22;5022027;28;19926;-56
2023/05/26 02:21:43;;;;;;;;;;;;;;;7.41;93.33;102981.69;5017540;28;21732;-56
2023/05/26 02:24:08;;;;;;;;;;;;;;;7.39;92.71;102981.56;5020621;28;19929;-56
2023/05/26 02:26:34;;;;;;;;;;;;;;;7.37;92.38;102983.13;5018563;28;20435;-57
2023/05/26 02:28:59;;;;;;;;;;;;;;;7.34;92.42;102981.97;5020035;28;19952;-56
2023/05/26 02:31:25;;;;;;;;;;;;;;;7.31;93.30;102985.22;5022451;28;19929;-57
2023/05/26 02:33:50;;;;;;;;;;;;;;;7.28;93.56;102979.88;5018517;28;19925;-56
2023/05/26 02:36:15;;;;;;;;;;;;;;;7.26;93.84;102976.28;5021842;28;20404;-56
2023/05/26 02:38:41;;;;;;;;;;;;;;;7.23;94.38;102987.22;5016048;28;20292;-57
2023/05/26 02:41:07;;;;;;;;;;;;;;;7.19;93.04;102982.63;5020434;28;20011;-55
2023/05/26 02:43:32;;;;;;;;;;;;;;;7.16;93.34;102984.03;5019826;28;20174;-57
2023/05/26 02:45:57;;;;;;;;;;;;;;;7.12;95.00;102990.63;5020655;28;19948;-56
2023/05/26 02:48:23;;;;;;;;;;;;;;;7.08;93.96;102991.16;5022233;28;20020;-57
2023/05/26 02:50:48;;;;;;;;;;;;;;;7.03;95.74;102982.22;5021188;28;19953;-57
2023/05/26 02:53:15;;;;;;;;;;;;;;;7.02;94.75;102984.69;5019555;28;19937;-56
2023/05/26 02:55:40;;;;;;;;;;;;;;;6.99;93.92;102980.22;5019716;28;19921;-56
2023/05/26 02:58:05;;;;;;;;;;;;;;;6.97;95.84;102980.09;5019481;28;19933;-55
2023/05/26 03:00:31;;;;;;;;;;;;;;;6.97;93.76;102966.41;5019440;28;19926;-56
2023/05/26 03:02:56;;;;;;;;;;;;;;;6.94;95.67;102974.75;5019451;28;20433;-55
2023/05/26 03:05:21;;;;;;;;;;;;;;;6.93;96.11;102977.22;5019121;28;19921;-56
2023/05/26 03:07:46;;;;;;;;;;;;;;;6.91;95.64;102977.06;5017391;28;19921;-56
2023/05/26 03:10:11;;;;;;;;;;;;;;;6.89;94.99;102968.41;5015894;28;20666;-56
2023/05/26 03:12:37;;;;;;;;;;;;;;;6.87;94.34;102972.50;5018029;28;20324;-57
2023/05/26 03:15:03;;;;;;;;;;;;;;;6.84;95.39;102968.81;5016285;28;19925;-57
2023/05/26 03:17:28;;;;;;;;;;;;;;;6.83;96.34;102972.16;5018475;28;19937;-57
2023/05/26 03:19:53;;;;;;;;;;;;;;;6.80;95.85;102977.94;5017251;28;19922;-57
2023/05/26 03:22:19;;;;;;;;;;;;;;;6.79;95.17;102980.34;5017822;28;19922;-56
2023/05/26 03:24:44;;;;;;;;;;;;;;;6.77;95.85;102987.03;5018465;28;19933;-56
2023/05/26 03:27:09;;;;;;;;;;;;;;;6.74;95.31;102982.56;5019464;28;19975;-55
2023/05/26 03:29:35;;;;;;;;;;;;;;;6.71;96.74;102990.88;5018032;28;19925;-56
2023/05/26 03:32:00;;;;;;;;;;;;;;;6.70;97.27;102994.22;5016130;28;19928;-56
2023/05/26 03:34:25;;;;;;;;;;;;;;;6.68;97.25;102995.78;5021648;28;19921;-56
2023/05/26 03:36:53;;;;;;;;;;;;;;;6.71;92.71;102995.09;5020015;28;20018;-56
2023/05/26 03:39:18;;;;;;;;;;;;;;;6.68;96.74;102998.34;5018426;28;19925;-56
2023/05/26 03:41:43;;;;;;;;;;;;;;;6.67;95.14;102998.19;5017430;28;19928;-57
2023/05/26 03:44:09;;;;;;;;;;;;;;;6.66;97.79;103002.41;5017542;28;19922;-56
2023/05/26 03:46:35;;;;;;;;;;;;;;;6.66;97.16;102994.75;5019374;28;19975;-57
2023/05/26 03:49:00;;;;;;;;;;;;;;;6.65;96.16;103000.63;5014278;28;20402;-57
2023/05/26 03:51:26;;;;;;;;;;;;;;;6.67;97.22;103005.88;5019877;28;19925;-56
2023/05/26 03:53:51;;;;;;;;;;;;;;;6.65;97.20;103005.75;5015828;28;19980;-56
2023/05/26 03:56:16;;;;;;;;;;;;;;;6.64;97.02;103011.63;5020922;28;19925;-56
2023/05/26 03:58:41;;;;;;;;;;;;;;;6.66;97.67;103006.63;5020635;28;19921;-56
2023/05/26 04:01:07;;;;;;;;;;;;;;;6.66;96.70;103001.53;5020787;28;19972;-56
2023/05/26 04:03:33;;;;;;;;;;;;;;;6.69;97.62;103006.91;5017196;28;19934;-56
2023/05/26 04:05:59;;;;;;;;;;;;;;;6.72;96.19;103004.56;5022591;28;19972;-56
2023/05/26 04:08:25;;;;;;;;;;;;;;;6.74;96.40;102995.38;5018938;28;19925;-56
2023/05/26 04:10:50;;;;;;;;;;;;;;;6.79;96.52;103006.81;5017141;28;20241;-56
2023/05/26 04:13:15;;;;;;;;;;;;;;;6.85;98.30;103011.50;5015601;28;19972;-57
2023/05/26 04:15:41;;;;;;;;;;;;;;;6.87;97.30;103004.88;5016805;28;19948;-57
2023/05/26 04:18:06;;;;;;;;;;;;;;;6.91;96.83;103001.75;5015850;28;19925;-56
2023/05/26 04:20:31;;;;;;;;;;;;;;;6.94;97.43;103013.13;5021342;28;20008;-57
2023/05/26 04:22:57;;;;;;;;;;;;;;;6.98;95.89;103014.25;5017600;28;19967;-57
2023/05/26 04:25:24;;;;;;;;;;;;;;;7.04;97.21;103014.75;5019300;28;19929;-56
2023/05/26 04:27:52;;;;;;;;;;;;;;;7.16;97.18;103025.91;5022314;28;19925;-57
2023/05/26 04:30:17;;;;;;;;;;;;;;;7.51;96.84;103022.53;5023848;28;20306;-56
2023/05/26 04:32:43;;;;;;;;;;;;;;;7.93;93.42;103016.25;5020927;28;19936;-57
2023/05/26 04:35:10;;;;;;;;;;;;;;;8.33;91.69;103012.34;5020426;28;20428;-56
2023/05/26 04:37:35;;;;;;;;;;;;;;;8.70;89.50;103015.84;5021613;28;19945;-57
2023/05/26 04:40:01;;;;;;;;;;;;;;;9.02;88.95;103012.94;5022871;28;19932;-57
2023/05/26 04:42:26;;;;;;;;;;;;;;;9.31;88.16;103022.63;5021391;28;20433;-56
2023/05/26 04:44:54;;;;;;;;;;;;;;;9.53;87.01;103030.09;5020192;28;20384;-56
2023/05/26 04:47:19;;;;;;;;;;;;;;;9.59;86.76;103027.06;5021066;28;19929;-57
2023/05/26 04:49:45;;;;;;;;;;;;;;;9.73;86.41;103031.41;5024002;28;20343;-57
2023/05/26 04:52:11;;;;;;;;;;;;;;;9.89;86.03;103023.03;5021734;28;19975;-57
2023/05/26 04:54:40;;;;;;;;;;;;;;;10.03;85.78;103024.81;5023252;28;20347;-57
2023/05/26 04:57:06;;;;;;;;;;;;;;;10.21;84.88;103013.13;5018932;28;20656;-56
2023/05/26 04:59:31;;;;;;;;;;;;;;;10.09;84.10;103035.50;5021613;28;19928;-56
2023/05/26 05:01:57;;;;;;;;;;;;;;;9.81;85.34;103037.94;5019903;28;19925;-57
2023/05/26 05:04:22;;;;;;;;;;;;;;;9.67;85.51;103047.31;5022747;28;19951;-57
2023/05/26 05:06:47;;;;;;;;;;;;;;;9.76;86.01;103036.72;5020869;28;19925;-56
2023/05/26 05:09:12;;;;;;;;;;;;;;;10.11;85.48;103038.16;5020755;28;19961;-57
2023/05/26 05:11:38;;;;;;;;;;;;;;;10.54;84.56;103033.19;5023181;28;19929;-57
2023/05/26 05:14:03;;;;;;;;;;;;;;;10.95;83.51;103035.75;5019106;28;19932;-57
2023/05/26 05:16:28;;;;;;;;;;;;;;;11.10;82.00;103041.88;5013619;28;19921;-55
2023/05/26 05:18:53;;;;;;;;;;;;;;;11.05;81.51;103043.25;5017514;28;20409;-55
2023/05/26 05:21:19;;;;;;;;;;;;;;;11.33;80.94;103039.75;5010260;28;19926;-55
2023/05/26 05:23:45;;;;;;;;;;;;;;;11.60;79.89;103038.81;5020681;28;19913;-56
2023/05/26 05:26:11;;;;;;;;;;;;;;;11.87;78.40;103041.25;5014624;28;19929;-56
2023/05/26 05:28:36;;;;;;;;;;;;;;;11.89;77.00;103037.06;5015204;28;19925;-57
2023/05/26 05:31:02;;;;;;;;;;;;;;;12.02;77.33;103043.00;5014200;28;20302;-56
2023/05/26 05:33:27;;;;;;;;;;;;;;;12.21;76.25;103039.78;5017532;28;19917;-55
2023/05/26 05:35:53;;;;;;;;;;;;;;;12.45;76.30;103047.09;5013879;28;19922;-56
2023/05/26 05:38:18;;;;;;;;;;;;;;;12.70;76.88;103052.81;5014141;28;19929;-56
2023/05/26 05:40:43;;;;;;;;;;;;;;;12.74;74.07;103039.25;5025526;28;19917;-55
2023/05/26 05:43:09;;;;;;;;;;;;;;;12.65;72.38;103049.06;5032228;28;19976;-57
2023/05/26 05:45:34;;;;;;;;;;;;;;;12.72;76.28;103046.00;5030696;28;20319;-55
2023/05/26 05:47:59;;;;;;;;;;;;;;;12.98;75.01;103049.09;5030987;28;20300;-56
2023/05/26 05:50:24;;;;;;;;;;;;;;;13.19;72.52;103055.41;5020035;28;19922;-55
2023/05/26 05:52:50;;;;;;;;;;;;;;;13.31;72.91;103066.41;5019836;28;20364;-56
2023/05/26 05:55:15;;;;;;;;;;;;;;;13.28;70.75;103067.94;5015992;28;20387;-56
2023/05/26 05:57:40;;;;;;;;;;;;;;;12.98;70.88;103069.75;5016592;28;19951;-57
2023/05/26 06:00:07;;;;;;;;;;;;;;;12.72;73.30;103064.09;5019407;28;19921;-56
2023/05/26 06:02:33;;;;;;;;;;;;;;;12.64;73.48;103062.78;5016028;28;19925;-55
2023/05/26 06:04:58;;;;;;;;;;;;;;;12.73;74.04;103073.59;5019294;28;19944;-55
2023/05/26 06:07:23;;;;;;;;;;;;;;;12.58;72.46;103077.94;5019899;28;19922;-55
2023/05/26 06:09:48;;;;;;;;;;;;;;;12.39;73.29;103070.00;5021434;28;19921;-56
2023/05/26 06:12:14;;;;;;;;;;;;;;;12.24;72.12;103072.59;5018018;28;19925;-56
2023/05/26 06:14:39;;;;;;;;;;;;;;;12.04;73.51;103076.63;5019921;28;19944;-56
2023/05/26 06:17:04;;;;;;;;;;;;;;;12.04;74.33;103076.63;5020393;28;19921;-56
2023/05/26 06:19:30;;;;;;;;;;;;;;;12.15;73.42;103080.69;5022493;28;19932;-55
2023/05/26 06:21:56;;;;;;;;;;;;;;;12.13;73.32;103084.88;5024550;28;20384;-56
2023/05/26 06:24:21;;;;;;;;;;;;;;;12.01;74.00;103082.50;5026334;28;19924;-56
2023/05/26 06:26:46;;;;;;;;;;;;;;;12.06;74.33;103081.03;5024525;28;20483;-55
2023/05/26 06:29:11;;;;;;;;;;;;;;;12.43;73.51;103082.25;5023303;28;19925;-55
2023/05/26 06:31:37;;;;;;;;;;;;;;;12.61;72.59;103081.56;5017963;28;19921;-54
2023/05/26 06:34:02;;;;;;;;;;;;;;;12.96;72.51;103073.97;5018513;28;19921;-56
2023/05/26 06:36:27;;;;;;;;;;;;;;;13.14;72.50;103064.59;5017180;28;19933;-56
2023/05/26 06:38:53;;;;;;;;;;;;;;;13.45;68.66;103079.16;5015990;28;19929;-56
2023/05/26 06:41:18;;;;;;;;;;;;;;;13.48;69.61;103076.75;5014189;28;19972;-56
2023/05/26 06:43:43;;;;;;;;;;;;;;;13.47;66.34;103078.44;5024676;28;19925;-56
2023/05/26 06:46:08;;;;;;;;;;;;;;;13.36;68.50;103077.88;5021995;28;19961;-56
2023/05/26 06:48:34;;;;;;;;;;;;;;;13.62;66.27;103074.03;5020762;28;20012;-56
2023/05/26 06:50:59;;;;;;;;;;;;;;;13.77;65.71;103073.94;5028659;28;19921;-57
2023/05/26 06:53:24;;;;;;;;;;;;;;;13.78;64.87;103074.81;5020766;28;19951;-56
2023/05/26 06:55:50;;;;;;;;;;;;;;;13.75;65.21;103078.13;5022150;28;19991;-55
2023/05/26 06:58:15;;;;;;;;;;;;;;;13.78;63.55;103083.47;5021944;28;19921;-56
2023/05/26 07:00:55;;;;;;;;;;;;;;;13.85;63.88;103082.06;5020699;28;19917;-56
2023/05/26 07:03:20;;;;;;;;;;;;;;;13.87;63.73;103078.72;5027742;28;19921;-56
2023/05/26 07:05:46;;;;;;;;;;;;;;;14.05;65.47;103081.34;5020887;28;19933;-55
2023/05/26 07:08:11;;;;;;;;;;;;;;;14.26;62.56;103073.75;5021531;28;20265;-56
2023/05/26 07:10:36;;;;;;;;;;;;;;;14.21;62.72;103083.00;5018532;28;19984;-56
2023/05/26 07:13:01;;;;;;;;;;;;;;;14.32;60.42;103074.03;5022773;28;19921;-56
2023/05/26 07:15:26;;;;;;;;;;;;;;;14.08;62.49;103090.97;5022925;28;20008;-56
2023/05/26 07:17:52;;;;;;;;;;;;;;;13.92;63.38;103090.19;5021222;28;19925;-56
2023/05/26 07:20:17;;;;;;;;;;;;;;;13.86;61.45;103084.72;5015315;28;19925;-56
2023/05/26 07:22:42;;;;;;;;;;;;;;;13.67;62.84;103092.38;5011514;28;19986;-57
2023/05/26 07:25:08;;;;;;;;;;;;;;;13.53;62.87;103093.34;5023979;28;19928;-56
2023/05/26 07:27:33;;;;;;;;;;;;;;;13.55;63.42;103094.31;5021842;28;19928;-56
2023/05/26 07:29:58;;;;;;;;;;;;;;;13.58;63.09;103091.88;5018196;28;19917;-56
2023/05/26 07:32:23;;;;;;;;;;;;;;;13.64;62.71;103098.25;5020386;28;20393;-55
2023/05/26 07:34:49;;;;;;;;;;;;;;;13.69;62.24;103103.66;5013064;28;19921;-53
2023/05/26 07:37:14;;;;;;;;;;;;;;;13.58;62.00;103094.47;5022131;28;20625;-51
2023/05/26 07:39:39;;;;;;;;;;;;;;;13.65;61.99;103099.13;5014335;28;19926;-51
2023/05/26 07:42:05;;;;;;;;;;;;;;;13.56;62.22;103096.97;5014622;28;19918;-52
2023/05/26 07:44:30;;;;;;;;;;;;;;;13.76;61.67;103087.66;5014454;28;19960;-52
2023/05/26 07:46:56;;;;;;;;;;;;;;;13.77;60.87;103091.13;5019138;28;19925;-48
2023/05/26 07:49:21;;;;;;;;;;;;;;;13.80;61.13;103097.34;5016669;28;20012;-50
2023/05/26 07:51:47;;;;;;;;;;;;;;;13.71;61.27;103095.97;5015551;28;19925;-51
2023/05/26 07:54:12;;;;;;;;;;;;;;;13.69;60.60;103101.09;5017425;28;19922;-52
2023/05/26 07:56:37;;;;;;;;;;;;;;;13.83;60.38;103088.84;5022650;28;19925;-49
2023/05/26 07:59:02;;;;;;;;;;;;;;;13.67;60.69;103087.19;5016259;28;19940;-49
2023/05/26 08:01:28;;;;;;;;;;;;;;;13.56;61.27;103098.69;5017362;28;20466;-54
2023/05/26 08:03:53;;;;;;;;;;;;;;;13.71;60.98;103093.38;5014784;28;19929;-56
2023/05/26 08:06:18;;;;;;;;;;;;;;;13.67;60.73;103095.84;5020425;28;19921;-55
2023/05/26 08:08:43;;;;;;;;;;;;;;;13.80;60.40;103081.84;5019062;28;20339;-55
2023/05/26 08:11:09;;;;;;;;;;;;;;;13.86;60.38;103086.41;5017721;28;19974;-53
2023/05/26 08:13:34;;;;;;;;;;;;;;;13.95;59.88;103092.03;5010904;28;19921;-52
2023/05/26 08:15:59;;;;;;;;;;;;;;;13.88;60.04;103092.53;5013716;28;20412;-50
2023/05/26 08:18:24;;;;;;;;;;;;;;;13.89;59.74;103095.22;5020555;28;20395;-49
2023/05/26 08:20:52;;;;;;;;;;;;;;;13.97;59.63;103092.13;5019429;28;19921;-50
2023/05/26 08:23:18;;;;;;;;;;;;;;;14.13;59.01;103090.34;5019455;28;19922;-52
2023/05/26 08:25:43;;;;;;;;;;;;;;;13.94;58.19;103082.50;5021777;28;20618;-51
2023/05/26 08:28:08;;;;;;;;;;;;;;;13.96;60.26;103086.06;5023716;28;20011;-49
2023/05/26 08:30:33;;;;;;;;;;;;;;;14.19;59.81;103080.31;5021531;28;19940;-51
2023/05/26 08:32:59;;;;;;;;;;;;;;;14.48;58.43;103086.03;5022055;28;19921;-53
2023/05/26 08:35:26;;;;;;;;;;;;;;;14.52;58.49;103079.31;5007495;28;19930;-52
2023/05/26 08:37:52;;;;;;;;;;;;;;;14.73;55.84;103078.59;5021006;28;20412;-50
2023/05/26 08:40:17;;;;;;;;;;;;;;;14.65;56.30;103079.06;5021679;28;19928;-52
2023/05/26 08:42:45;;;;;;;;;;;;;;;14.51;55.94;103078.41;5020986;28;19922;-49
2023/05/26 08:45:11;;;;;;;;;;;;;;;14.46;56.92;103075.59;5022306;28;19921;-50
2023/05/26 08:47:36;;;;;;;;;;;;;;;14.64;57.35;103080.75;5022004;28;19917;-50
2023/05/26 08:50:03;;;;;;;;;;;;;;;14.87;55.94;103078.34;5019831;28;20406;-50
2023/05/26 08:52:28;;;;;;;;;;;;;;;14.71;55.91;103071.56;5019088;28;20536;-49
2023/05/26 08:54:54;;;;;;;;;;;;;;;14.65;56.41;103081.66;5018411;28;19921;-48
2023/05/26 08:57:20;;;;;;;;;;;;;;;14.83;55.14;103087.69;5022318;28;19925;-51
2023/05/26 08:59:48;;;;;;;;;;;;;;;14.85;56.07;103067.91;5020796;28;20557;-52
2023/05/26 09:02:13;;;;;;;;;;;;;;;14.79;55.21;103074.50;5016375;28;19921;-47
2023/05/26 09:04:39;;;;;;;;;;;;;;;14.64;56.31;103074.69;5015972;28;19917;-49
2023/05/26 09:07:08;;;;;;;;;;;;;;;14.61;55.95;103069.38;5013653;28;19914;-48
2023/05/26 09:09:33;;;;;;;;;;;;;;;14.70;53.47;103072.41;5019019;28;19920;-50
2023/05/26 09:11:58;;;;;;;;;;;;;;;14.55;53.94;103074.25;5016586;28;19933;-49
2023/05/26 09:14:23;;;;;;;;;;;;;;;14.46;55.25;103075.59;5016544;28;19929;-48
2023/05/26 09:16:49;;;;;;;;;;;;;;;14.63;54.88;103060.88;5015798;28;19920;-53
2023/05/26 09:19:15;;;;;;;;;;;;;;;14.81;52.73;103076.38;5014373;28;19988;-48
2023/05/26 09:21:47;;;;;;;;;;;;;;;14.67;53.03;103072.25;5012420;28;20296;-48
2023/05/26 09:24:17;;;;;;;;;;;;;;;14.64;52.36;103080.75;5017087;28;19929;-48
2023/05/26 09:26:44;;;;;;;;;;;;;;;14.56;53.37;103076.94;5014991;28;20011;-47
2023/05/26 09:29:09;;;;;;;;;;;;;;;14.61;53.95;103075.44;5011562;28;20021;-50
2023/05/26 09:31:37;;;;;;;;;;;;;;;14.68;51.98;103086.94;5009841;28;20012;-49
2023/05/26 09:34:03;;;;;;;;;;;;;;;14.58;52.77;103088.25;5025616;28;19920;-51
2023/05/26 09:36:28;;;;;;;;;;;;;;;14.60;51.86;103081.44;5017527;28;20296;-53
2023/05/26 09:38:53;;;;;;;;;;;;;;;14.81;52.67;103078.97;5016537;28;19929;-49
2023/05/26 09:41:19;;;;;;;;;;;;;;;15.07;52.07;103080.13;5019053;28;19935;-51
2023/05/26 09:43:45;;;;;;;;;;;;;;;15.21;51.91;103081.63;5020631;28;19921;-51
2023/05/26 09:46:20;;;;;;;;;;;;;;;15.27;51.72;103081.00;5023773;28;20012;-52
2023/05/26 09:48:49;;;;;;;;;;;;;;;15.28;51.27;103081.06;5019879;28;20589;-52
2023/05/26 09:51:17;;;;;;;;;;;;;;;15.40;50.71;103087.63;5022654;28;19979;-57
2023/05/26 09:53:42;;;;;;;;;;;;;;;15.37;50.01;103082.31;5021622;28;20375;-57
2023/05/26 09:56:07;;;;;;;;;;;;;;;15.35;50.01;103077.06;5022578;28;19993;-54
2023/05/26 09:58:38;;;;;;;;;;;;;;;15.34;49.93;103066.59;5020396;28;19969;-52
2023/05/26 10:01:05;;;;;;;;;;;;;;;15.33;47.29;103076.09;5020095;28;19924;-52
2023/05/26 10:03:31;;;;;;;;;;;;;;;15.36;47.36;103072.75;5019092;28;19960;-53
2023/05/26 10:05:58;;;;;;;;;;;;;;;15.39;48.41;103065.09;5017330;28;20008;-53
2023/05/26 10:08:23;;;;;;;;;;;;;;;15.36;48.82;103071.06;5021181;28;21641;-53
2023/05/26 10:10:49;;;;;;;;;;;;;;;15.57;47.24;103071.09;5021200;28;19921;-52
2023/05/26 10:13:16;;;;;;;;;;;;;;;15.72;47.39;103073.50;5020107;28;19967;-51
2023/05/26 10:15:42;;;;;;;;;;;;;;;15.65;47.56;103064.56;5018595;28;19929;-53
2023/05/26 10:18:08;;;;;;;;;;;;;;;15.80;45.63;103064.31;5020251;28;19977;-52
2023/05/26 10:20:35;;;;;;;;;;;;;;;15.69;48.16;103056.06;5019917;28;19929;-51
2023/05/26 10:23:10;;;;;;;;;;;;;;;15.85;46.47;103052.41;5021161;28;19924;-49
2023/05/26 10:25:35;;;;;;;;;;;;;;;16.04;47.08;103060.13;5019611;28;19932;-50
2023/05/26 10:28:12;;;;;;;;;;;;;;;16.05;45.52;103054.09;5024875;28;19921;-51
2023/05/26 10:30:39;;;;;;;;;;;;;;;16.06;47.47;103052.38;5021203;28;19927;-51
2023/05/26 10:33:09;;;;;;;;;;;;;;;16.19;45.63;103048.56;5022463;28;20427;-49
2023/05/26 10:35:35;;;;;;;;;;;;;;;16.16;45.76;103049.34;5024335;28;19945;-51
2023/05/26 10:38:03;;;;;;;;;;;;;;;16.09;46.85;103044.75;5021881;28;20011;-51
2023/05/26 10:40:40;;;;;;;;;;;;;;;16.20;46.62;103042.56;5022705;28;19924;-50
2023/05/26 10:43:13;;;;;;;;;;;;;;;16.26;43.45;103040.19;5016791;28;19967;-51
2023/05/26 10:45:44;;;;;;;;;;;;;;;16.20;44.21;103035.69;5023350;28;20284;-51
2023/05/26 10:48:10;;;;;;;;;;;;;;;16.34;44.90;103034.50;5024014;28;19917;-48
2023/05/26 10:50:54;;;;;;;;;;;;;;;16.46;43.25;103033.22;5022258;28;19987;-49
2023/05/26 10:53:21;;;;;;;;;;;;;;;16.45;44.62;103034.03;5024385;28;20447;-49
2023/05/26 10:55:55;;;;;;;;;;;;;;;16.58;43.52;103033.66;5022666;28;20223;-49
2023/05/26 10:58:26;;;;;;;;;;;;;;;16.66;41.95;103039.16;5025438;28;20380;-51
2023/05/26 11:00:54;;;;;;;;;;;;;;;16.67;42.87;103033.13;5020943;28;19960;-51
2023/05/26 11:03:40;;;;;;;;;;;;;;;16.70;42.28;103030.66;5025240;28;19925;-52
2023/05/26 11:06:05;;;;;;;;;;;;;;;16.55;41.09;103029.22;5022457;28;19948;-51
2023/05/26 11:08:38;;;;;;;;;;;;;;;16.57;42.21;103026.72;5025458;28;20035;-51
2023/05/26 11:11:05;;;;;;;;;;;;;;;16.86;40.10;103031.28;5022605;28;19921;-49
2023/05/26 11:13:40;;;;;;;;;;;;;;;16.95;40.58;103037.66;5023828;28;19929;-48
2023/05/26 11:16:18;;;;;;;;;;;;;;;17.00;40.53;103029.22;5023646;28;19917;-49
2023/05/26 11:18:53;;;;;;;;;;;;;;;16.92;40.31;103025.44;5021666;28;20335;-48
2023/05/26 11:21:22;;;;;;;;;;;;;;;17.05;40.19;103032.88;5023670;28;19936;-51
2023/05/26 11:23:47;;;;;;;;;;;;;;;17.10;40.89;103036.47;5021770;28;19974;-55
2023/05/26 11:26:15;;;;;;;;;;;;;;;17.08;41.44;103026.88;5022069;28;19929;-55
2023/05/26 11:28:41;;;;;;;;;;;;;;;17.24;41.13;103017.91;5021332;28;19964;-56
2023/05/26 11:31:10;;;;;;;;;;;;;;;17.33;41.22;103019.09;5022145;28;19963;-54
2023/05/26 11:33:36;;;;;;;;;;;;;;;17.48;42.51;103021.34;5021284;28;20389;-51
2023/05/26 11:36:04;;;;;;;;;;;;;;;17.60;41.51;103015.69;5022035;28;19928;-52
2023/05/26 11:38:30;;;;;;;;;;;;;;;17.67;40.04;103028.94;5022727;28;19975;-52
2023/05/26 11:40:55;;;;;;;;;;;;;;;17.67;41.58;103017.66;5022655;28;19932;-53
2023/05/26 11:43:23;;;;;;;;;;;;;;;17.79;41.72;103006.78;5021725;28;20418;-51
2023/05/26 11:45:52;;;;;;;;;;;;;;;17.90;36.06;103021.91;5024128;28;19950;-52
2023/05/26 11:48:17;;;;;;;;;;;;;;;17.87;38.10;103015.72;5022682;28;19925;-53
2023/05/26 11:50:43;;;;;;;;;;;;;;;17.91;38.45;103012.38;5023075;28;19924;-52
2023/05/26 11:53:08;;;;;;;;;;;;;;;17.94;38.44;103005.53;5021618;28;19917;-50
2023/05/26 11:55:33;;;;;;;;;;;;;;;18.10;39.06;103026.88;5023835;28;20095;-51
2023/05/26 11:57:58;;;;;;;;;;;;;;;18.08;39.70;103006.00;5024042;28;19932;-52
2023/05/26 12:00:26;;;;;;;;;;;;;;;17.98;40.90;103001.34;5021210;28;20399;-50
2023/05/26 12:02:51;;;;;;;;;;;;;;;18.10;38.37;103006.91;5021178;28;20502;-54
2023/05/26 12:05:16;;;;;;;;;;;;;;;18.00;40.11;103004.84;5025057;28;19921;-53
2023/05/26 12:07:42;;;;;;;;;;;;;;;18.00;40.68;102996.16;5022878;28;19917;-52
2023/05/26 12:10:08;;;;;;;;;;;;;;;18.15;39.96;102994.94;5023242;28;21428;-53
2023/05/26 12:12:46;;;;;;;;;;;;;;;18.26;40.54;102996.97;5021940;28;19932;-53
2023/05/26 12:15:11;;;;;;;;;;;;;;;18.45;39.69;102992.38;5021017;28;19924;-54
2023/05/26 12:17:37;;;;;;;;;;;;;;;18.61;39.23;103001.50;5015809;28;19921;-52
2023/05/26 12:20:05;;;;;;;;;;;;;;;18.56;39.03;102994.38;5017957;28;20011;-53
2023/05/26 12:22:30;;;;;;;;;;;;;;;18.59;39.28;102984.94;5020346;28;19917;-52
2023/05/26 12:25:00;;;;;;;;;;;;;;;18.74;39.31;102998.41;5021387;28;19928;-54
2023/05/26 12:27:35;;;;;;;;;;;;;;;18.72;39.53;102994.03;5019404;28;19925;-53
2023/05/26 12:30:15;;;;;;;;;;;;;;;18.81;39.11;102996.91;5023413;28;19932;-53
2023/05/26 12:32:40;;;;;;;;;;;;;;;18.68;39.93;102987.81;5019465;28;20586;-53
2023/05/26 12:35:06;;;;;;;;;;;;;;;18.72;39.44;102984.47;5021333;28;19925;-51
2023/05/26 12:37:31;;;;;;;;;;;;;;;18.74;37.74;102984.50;5020014;28;19960;-51